Time;durP1;ratioP1;P1;durP2;ratioP2;P2;SDS_P1;SDS_P2;PMS_P1;PMS_P2;Temp;Humidity;BMP_temperature;BMP_pressure;BME280_temperature;BME280_humidity;BME280_pressure;Samples;Min_cycle;Max_cycle;Signal;HPM_P1;HPM_P2
2023/12/12 00:01:50;;;;;;;19.47;4.20;;;;;;;;;;5039858;28;20204;-62
2023/12/12 00:04:18;;;;;;;20.90;4.30;;;;;;;;;;5042826;28;20206;-63
2023/12/12 00:06:45;;;;;;;21.77;4.70;;;;;;;;;;5039203;28;20207;-63
2023/12/12 00:09:12;;;;;;;21.73;4.30;;;;;;;;;;5042194;28;20208;-65
2023/12/12 00:11:39;;;;;;;19.00;4.33;;;;;;;;;;5038824;28;20239;-63
2023/12/12 00:14:07;;;;;;;24.23;5.27;;;;;;;;;;5034848;28;20246;-63
2023/12/12 00:16:34;;;;;;;22.53;4.17;;;;;;;;;;5039444;28;20205;-63
2023/12/12 00:19:01;;;;;;;18.27;4.80;;;;;;;;;;5036480;28;20229;-63
2023/12/12 00:21:30;;;;;;;23.23;4.50;;;;;;;;;;5042266;28;20196;-63
2023/12/12 00:23:57;;;;;;;16.67;4.07;;;;;;;;;;5040099;28;20199;-63
2023/12/12 00:26:24;;;;;;;16.17;4.87;;;;;;;;;;5036597;28;20207;-63
2023/12/12 00:28:51;;;;;;;18.67;3.97;;;;;;;;;;5043545;28;20199;-65
2023/12/12 00:31:19;;;;;;;18.67;4.33;;;;;;;;;;5037007;28;20239;-63
2023/12/12 00:33:46;;;;;;;20.77;4.43;;;;;;;;;;5037013;28;20203;-64
2023/12/12 00:36:13;;;;;;;20.80;4.47;;;;;;;;;;5042682;28;20212;-62
2023/12/12 00:38:41;;;;;;;15.40;3.70;;;;;;;;;;5042755;28;20211;-64
2023/12/12 00:41:08;;;;;;;16.43;3.73;;;;;;;;;;5035980;28;20218;-67
2023/12/12 00:43:35;;;;;;;18.67;4.57;;;;;;;;;;5040169;28;20206;-67
2023/12/12 00:46:05;;;;;;;14.40;3.80;;;;;;;;;;5044195;28;20286;-68
2023/12/12 00:48:32;;;;;;;13.53;3.70;;;;;;;;;;5039426;28;20204;-69
2023/12/12 00:50:59;;;;;;;10.30;3.23;;;;;;;;;;5034675;28;20219;-68
2023/12/12 00:53:26;;;;;;;13.93;4.20;;;;;;;;;;5037932;28;20218;-68
2023/12/12 00:55:55;;;;;;;16.23;3.70;;;;;;;;;;5041321;28;20300;-68
2023/12/12 00:58:22;;;;;;;17.23;4.57;;;;;;;;;;5035042;28;20219;-69
2023/12/12 01:00:50;;;;;;;17.00;4.20;;;;;;;;;;5046274;28;20210;-68
2023/12/12 01:03:17;;;;;;;21.53;4.13;;;;;;;;;;5040012;28;20203;-68
2023/12/12 01:05:44;;;;;;;14.87;3.73;;;;;;;;;;5043763;28;20204;-68
2023/12/12 01:08:11;;;;;;;16.20;3.73;;;;;;;;;;5041567;28;20212;-67
2023/12/12 01:10:38;;;;;;;15.07;3.90;;;;;;;;;;5043852;28;20214;-69
2023/12/12 01:13:06;;;;;;;13.10;3.40;;;;;;;;;;5039791;28;20200;-67
2023/12/12 01:15:34;;;;;;;17.40;3.47;;;;;;;;;;5043993;28;20235;-69
2023/12/12 01:18:01;;;;;;;14.70;3.37;;;;;;;;;;5042439;28;20210;-67
2023/12/12 01:20:28;;;;;;;17.07;3.20;;;;;;;;;;5037479;28;20210;-67
2023/12/12 01:22:55;;;;;;;16.50;3.77;;;;;;;;;;5044505;28;20214;-67
2023/12/12 01:25:22;;;;;;;13.87;4.50;;;;;;;;;;5045091;28;20208;-68
2023/12/12 01:27:49;;;;;;;20.67;4.47;;;;;;;;;;5041494;28;20208;-67
2023/12/12 01:30:17;;;;;;;12.97;3.90;;;;;;;;;;5036460;28;20214;-68
2023/12/12 01:32:45;;;;;;;12.57;3.90;;;;;;;;;;5038487;28;20232;-68
2023/12/12 01:35:12;;;;;;;18.70;4.57;;;;;;;;;;5043467;28;20204;-68
2023/12/12 01:37:39;;;;;;;20.57;4.70;;;;;;;;;;5042894;28;20286;-68
2023/12/12 01:40:07;;;;;;;22.10;4.97;;;;;;;;;;5048783;28;20195;-68
2023/12/12 01:42:34;;;;;;;14.07;3.80;;;;;;;;;;5042744;28;20206;-68
2023/12/12 01:45:01;;;;;;;22.13;5.07;;;;;;;;;;5040475;28;20219;-68
2023/12/12 01:47:29;;;;;;;21.00;4.33;;;;;;;;;;5046050;28;20219;-68
2023/12/12 01:49:57;;;;;;;14.77;4.20;;;;;;;;;;5043420;28;20221;-68
2023/12/12 01:52:24;;;;;;;23.97;5.40;;;;;;;;;;5044196;28;20228;-68
2023/12/12 01:54:51;;;;;;;20.83;4.90;;;;;;;;;;5043996;28;20204;-68
2023/12/12 01:57:19;;;;;;;21.70;5.77;;;;;;;;;;5045451;28;20199;-68
2023/12/12 01:59:47;;;;;;;19.87;4.90;;;;;;;;;;5044844;28;20200;-68
2023/12/12 02:02:16;;;;;;;17.57;3.87;;;;;;;;;;5042814;28;20211;-67
2023/12/12 02:04:45;;;;;;;20.17;5.03;;;;;;;;;;5043952;28;20204;-67
2023/12/12 02:07:13;;;;;;;19.97;4.63;;;;;;;;;;5041169;28;20325;-67
2023/12/12 02:09:40;;;;;;;22.17;5.10;;;;;;;;;;5043300;28;20208;-68
2023/12/12 02:12:07;;;;;;;21.43;4.80;;;;;;;;;;5044222;28;20215;-67
2023/12/12 02:14:37;;;;;;;17.80;4.70;;;;;;;;;;5046401;28;20258;-68
2023/12/12 02:17:04;;;;;;;20.07;4.63;;;;;;;;;;5043463;28;20211;-68
2023/12/12 02:19:31;;;;;;;15.73;4.73;;;;;;;;;;5041813;28;20195;-69
2023/12/12 02:22:00;;;;;;;16.70;4.23;;;;;;;;;;5045933;28;20228;-69
2023/12/12 02:24:27;;;;;;;19.63;5.17;;;;;;;;;;5046017;28;20203;-68
2023/12/12 02:26:54;;;;;;;24.80;6.07;;;;;;;;;;5044234;28;20211;-68
2023/12/12 02:29:22;;;;;;;15.27;4.73;;;;;;;;;;5041420;28;20207;-69
2023/12/12 02:31:49;;;;;;;22.67;5.73;;;;;;;;;;5045814;28;20227;-69
2023/12/12 02:34:16;;;;;;;17.73;5.17;;;;;;;;;;5043245;28;20204;-69
2023/12/12 02:36:44;;;;;;;17.70;4.70;;;;;;;;;;5039058;28;20208;-68
2023/12/12 02:39:13;;;;;;;19.57;5.50;;;;;;;;;;5045383;28;20300;-69
2023/12/12 02:41:40;;;;;;;19.50;5.60;;;;;;;;;;5041755;28;20441;-69
2023/12/12 02:44:07;;;;;;;24.63;5.67;;;;;;;;;;5044905;28;20210;-68
2023/12/12 02:46:34;;;;;;;18.70;5.43;;;;;;;;;;5045645;28;20203;-67
2023/12/12 02:49:01;;;;;;;23.57;5.37;;;;;;;;;;5041125;28;20204;-68
2023/12/12 02:51:28;;;;;;;21.93;5.50;;;;;;;;;;5040846;28;20234;-68
2023/12/12 02:53:55;;;;;;;24.03;5.40;;;;;;;;;;5043305;28;20199;-68
2023/12/12 02:56:24;;;;;;;12.00;4.00;;;;;;;;;;5041091;28;20207;-68
2023/12/12 02:58:51;;;;;;;21.33;5.93;;;;;;;;;;5044137;28;20231;-68
2023/12/12 03:01:18;;;;;;;18.63;4.63;;;;;;;;;;5040921;28;20207;-68
2023/12/12 03:03:45;;;;;;;20.30;5.87;;;;;;;;;;5043722;28;20290;-68
2023/12/12 03:06:12;;;;;;;24.30;6.60;;;;;;;;;;5039792;28;20200;-69
2023/12/12 03:08:39;;;;;;;19.07;5.83;;;;;;;;;;5040576;28;20200;-68
2023/12/12 03:11:06;;;;;;;22.63;6.23;;;;;;;;;;5039159;28;20204;-68
2023/12/12 03:13:35;;;;;;;23.53;7.53;;;;;;;;;;5043193;28;20263;-68
2023/12/12 03:16:02;;;;;;;29.03;7.40;;;;;;;;;;5042483;28;20200;-69
2023/12/12 03:18:29;;;;;;;23.60;6.20;;;;;;;;;;5041458;28;20218;-68
2023/12/12 03:20:56;;;;;;;23.27;7.40;;;;;;;;;;5037601;28;20298;-68
2023/12/12 03:23:23;;;;;;;16.53;6.13;;;;;;;;;;5038531;28;20200;-68
2023/12/12 03:25:50;;;;;;;21.60;6.40;;;;;;;;;;5044280;28;20204;-68
2023/12/12 03:28:17;;;;;;;27.13;7.30;;;;;;;;;;5042965;28;20211;-68
2023/12/12 03:30:46;;;;;;;20.83;6.50;;;;;;;;;;5042512;28;20203;-68
2023/12/12 03:33:13;;;;;;;22.03;6.83;;;;;;;;;;5042817;28;20220;-68
2023/12/12 03:35:40;;;;;;;19.80;6.63;;;;;;;;;;5042032;28;20206;-68
2023/12/12 03:38:07;;;;;;;23.83;7.17;;;;;;;;;;5043722;28;20201;-68
2023/12/12 03:40:34;;;;;;;22.60;6.50;;;;;;;;;;5045754;28;20286;-68
2023/12/12 03:43:01;;;;;;;26.80;6.90;;;;;;;;;;5044394;28;20287;-68
2023/12/12 03:45:29;;;;;;;19.70;6.27;;;;;;;;;;5037100;28;20207;-68
2023/12/12 03:47:57;;;;;;;22.03;6.37;;;;;;;;;;5041721;28;20207;-68
2023/12/12 03:50:25;;;;;;;18.03;5.70;;;;;;;;;;5034867;28;20204;-68
2023/12/12 03:52:52;;;;;;;23.03;6.57;;;;;;;;;;5046301;28;20215;-68
2023/12/12 03:55:19;;;;;;;18.60;6.73;;;;;;;;;;5042037;28;20207;-68
2023/12/12 03:57:47;;;;;;;23.80;6.50;;;;;;;;;;5044506;28;20203;-67
2023/12/12 04:00:15;;;;;;;19.30;5.53;;;;;;;;;;5038456;28;20208;-68
2023/12/12 04:02:42;;;;;;;15.70;5.90;;;;;;;;;;5042592;28;20231;-68
2023/12/12 04:05:11;;;;;;;14.87;4.83;;;;;;;;;;5040883;28;20204;-68
2023/12/12 04:07:38;;;;;;;23.83;6.30;;;;;;;;;;5042761;28;20393;-69
2023/12/12 04:10:07;;;;;;;24.67;6.17;;;;;;;;;;5042631;28;20200;-68
2023/12/12 04:12:34;;;;;;;26.27;6.83;;;;;;;;;;5040826;28;20238;-68
2023/12/12 04:15:01;;;;;;;22.23;5.90;;;;;;;;;;5043736;28;20223;-68
2023/12/12 04:17:28;;;;;;;26.07;6.90;;;;;;;;;;5045384;28;20203;-68
2023/12/12 04:19:55;;;;;;;24.87;6.40;;;;;;;;;;5040934;28;20210;-68
2023/12/12 04:22:24;;;;;;;20.37;6.00;;;;;;;;;;5036576;28;20207;-68
2023/12/12 04:24:51;;;;;;;25.20;6.77;;;;;;;;;;5040746;28;20210;-68
2023/12/12 04:27:18;;;;;;;15.87;5.67;;;;;;;;;;5040018;28;20203;-68
2023/12/12 04:29:45;;;;;;;15.20;5.73;;;;;;;;;;5037827;28;20253;-68
2023/12/12 04:32:12;;;;;;;15.67;4.70;;;;;;;;;;5040024;28;20216;-68
2023/12/12 04:34:40;;;;;;;22.57;6.20;;;;;;;;;;5039783;28;20207;-68
2023/12/12 04:37:07;;;;;;;13.47;4.93;;;;;;;;;;5042515;28;20195;-68
2023/12/12 04:39:36;;;;;;;19.87;5.40;;;;;;;;;;5042782;28;20207;-68
2023/12/12 04:42:04;;;;;;;17.70;5.20;;;;;;;;;;5039387;28;20249;-68
2023/12/12 04:44:31;;;;;;;21.80;6.07;;;;;;;;;;5041263;28;20205;-68
2023/12/12 04:46:58;;;;;;;17.13;5.00;;;;;;;;;;5040051;28;20210;-68
2023/12/12 04:49:25;;;;;;;17.53;5.37;;;;;;;;;;5040221;28;20204;-67
2023/12/12 04:51:52;;;;;;;17.23;5.27;;;;;;;;;;5041715;28;20211;-68
2023/12/12 04:54:20;;;;;;;22.40;6.03;;;;;;;;;;5043335;28;20214;-68
2023/12/12 04:56:48;;;;;;;17.60;6.03;;;;;;;;;;5042997;28;20231;-68
2023/12/12 04:59:15;;;;;;;14.90;5.10;;;;;;;;;;5040960;28;20207;-68
2023/12/12 05:01:43;;;;;;;14.33;5.40;;;;;;;;;;5041226;28;20226;-68
2023/12/12 05:04:10;;;;;;;14.93;4.67;;;;;;;;;;5041802;28;20207;-68
2023/12/12 05:06:37;;;;;;;14.17;4.83;;;;;;;;;;5043778;28;20206;-68
2023/12/12 05:09:04;;;;;;;12.97;4.80;;;;;;;;;;5038645;28;20215;-68
2023/12/12 05:11:31;;;;;;;16.63;4.83;;;;;;;;;;5041307;28;20207;-68
2023/12/12 05:14:00;;;;;;;11.63;4.57;;;;;;;;;;5040507;28;20234;-67
2023/12/12 05:16:27;;;;;;;17.73;5.00;;;;;;;;;;5038799;28;20200;-67
2023/12/12 05:18:55;;;;;;;15.63;4.53;;;;;;;;;;5038441;28;20201;-68
2023/12/12 05:21:22;;;;;;;14.07;4.63;;;;;;;;;;5040887;28;20200;-63
2023/12/12 05:23:50;;;;;;;14.40;5.20;;;;;;;;;;5041886;28;20196;-62
2023/12/12 05:26:18;;;;;;;15.30;5.03;;;;;;;;;;5039121;28;20500;-63
2023/12/12 05:28:46;;;;;;;17.63;5.57;;;;;;;;;;5039433;28;20211;-64
2023/12/12 05:31:14;;;;;;;17.13;5.63;;;;;;;;;;5043830;28;20470;-62
2023/12/12 05:33:42;;;;;;;18.43;7.03;;;;;;;;;;5038106;28;20308;-62
2023/12/12 05:36:10;;;;;;;19.80;7.00;;;;;;;;;;5039205;28;20195;-62
2023/12/12 05:38:37;;;;;;;15.57;6.83;;;;;;;;;;5040408;28;20254;-63
2023/12/12 05:41:06;;;;;;;14.73;5.50;;;;;;;;;;5046001;28;20204;-63
2023/12/12 05:43:33;;;;;;;14.60;5.50;;;;;;;;;;5037278;28;20205;-63
2023/12/12 05:46:02;;;;;;;16.80;4.90;;;;;;;;;;5044134;28;20200;-63
2023/12/12 05:48:31;;;;;;;14.93;5.10;;;;;;;;;;5043832;28;20214;-62
2023/12/12 05:50:59;;;;;;;15.47;5.23;;;;;;;;;;5041358;28;20307;-63
2023/12/12 05:53:29;;;;;;;14.30;4.83;;;;;;;;;;5045101;28;20262;-63
2023/12/12 05:55:56;;;;;;;21.23;5.10;;;;;;;;;;5043164;28;20251;-62
2023/12/12 05:58:24;;;;;;;12.90;5.10;;;;;;;;;;5044403;28;20231;-62
2023/12/12 06:00:52;;;;;;;13.03;5.27;;;;;;;;;;5047369;28;20288;-62
2023/12/12 06:03:19;;;;;;;12.50;5.03;;;;;;;;;;5040557;28;20226;-63
2023/12/12 06:05:48;;;;;;;17.80;4.47;;;;;;;;;;5039682;28;20228;-62
2023/12/12 06:08:15;;;;;;;21.03;5.07;;;;;;;;;;5039352;28;20322;-63
2023/12/12 06:10:42;;;;;;;17.73;4.87;;;;;;;;;;5044144;28;20215;-63
2023/12/12 06:13:09;;;;;;;24.07;5.97;;;;;;;;;;5043698;28;20216;-63
2023/12/12 06:15:37;;;;;;;23.77;5.40;;;;;;;;;;5042248;28;20243;-64
2023/12/12 06:18:04;;;;;;;21.43;5.07;;;;;;;;;;5033893;28;20203;-63
2023/12/12 06:20:35;;;;;;;19.57;5.63;;;;;;;;;;5035443;28;20207;-63
2023/12/12 06:23:03;;;;;;;20.47;5.73;;;;;;;;;;5041181;28;20195;-64
2023/12/12 06:25:31;;;;;;;19.90;4.60;;;;;;;;;;5042169;28;20208;-62
2023/12/12 06:27:58;;;;;;;21.77;5.00;;;;;;;;;;5041488;28;20262;-63
2023/12/12 06:30:28;;;;;;;35.37;5.70;;;;;;;;;;5041289;28;20222;-63
2023/12/12 06:32:56;;;;;;;19.27;5.37;;;;;;;;;;5038425;28;20273;-63
2023/12/12 06:35:24;;;;;;;20.27;4.83;;;;;;;;;;5041437;28;20204;-62
2023/12/12 06:37:51;;;;;;;16.13;5.07;;;;;;;;;;5037600;28;20191;-63
2023/12/12 06:40:21;;;;;;;21.47;5.47;;;;;;;;;;5046593;28;20212;-63
2023/12/12 06:42:48;;;;;;;16.87;5.73;;;;;;;;;;5036436;28;20203;-64
2023/12/12 06:45:15;;;;;;;20.33;5.63;;;;;;;;;;5039200;28;20212;-63
2023/12/12 06:47:44;;;;;;;30.30;7.27;;;;;;;;;;5039111;28;20247;-63
2023/12/12 06:50:11;;;;;;;19.97;6.67;;;;;;;;;;5041175;28;20208;-63
2023/12/12 06:52:40;;;;;;;18.50;6.20;;;;;;;;;;5040301;28;20323;-63
2023/12/12 06:55:08;;;;;;;20.73;7.17;;;;;;;;;;5043549;28;20211;-62
2023/12/12 06:57:37;;;;;;;21.17;7.00;;;;;;;;;;5039807;28;20257;-63
2023/12/12 07:00:06;;;;;;;16.67;5.80;;;;;;;;;;5043335;28;20207;-63
2023/12/12 07:02:34;;;;;;;21.23;6.60;;;;;;;;;;5039698;28;20208;-64
2023/12/12 07:05:02;;;;;;;16.93;5.80;;;;;;;;;;5042165;28;20203;-62
2023/12/12 07:07:29;;;;;;;15.83;6.00;;;;;;;;;;5040428;28;20195;-62
2023/12/12 07:09:56;;;;;;;20.83;6.17;;;;;;;;;;5042109;28;20293;-63
2023/12/12 07:12:24;;;;;;;15.77;6.10;;;;;;;;;;5041405;28;20242;-62
2023/12/12 07:14:53;;;;;;;15.43;5.73;;;;;;;;;;5047151;28;20227;-63
2023/12/12 07:17:20;;;;;;;18.83;6.30;;;;;;;;;;5041172;28;20208;-62
2023/12/12 07:19:47;;;;;;;24.03;9.10;;;;;;;;;;5036110;28;20209;-63
2023/12/12 07:22:15;;;;;;;30.27;12.13;;;;;;;;;;5039020;28;20258;-63
2023/12/12 07:24:42;;;;;;;43.43;19.40;;;;;;;;;;5036145;28;20283;-62
2023/12/12 07:27:10;;;;;;;39.03;17.77;;;;;;;;;;5035770;28;20257;-62
2023/12/12 07:29:37;;;;;;;30.10;12.70;;;;;;;;;;5044709;28;20282;-62
2023/12/12 07:32:07;;;;;;;21.37;9.03;;;;;;;;;;5042620;28;20212;-64
2023/12/12 07:34:35;;;;;;;22.90;9.53;;;;;;;;;;5040045;28;20224;-62
2023/12/12 07:37:02;;;;;;;15.30;6.00;;;;;;;;;;5038497;28;20212;-63
2023/12/12 07:39:30;;;;;;;15.60;6.70;;;;;;;;;;5044747;28;20204;-62
2023/12/12 07:41:57;;;;;;;16.87;7.20;;;;;;;;;;5039339;28;20208;-67
2023/12/12 07:44:25;;;;;;;17.70;6.67;;;;;;;;;;5040434;28;20195;-67
2023/12/12 07:46:52;;;;;;;22.83;7.27;;;;;;;;;;5035910;28;20212;-67
2023/12/12 07:49:20;;;;;;;19.57;7.37;;;;;;;;;;5038895;28;20200;-68
2023/12/12 07:51:49;;;;;;;19.70;7.20;;;;;;;;;;5039404;28;20215;-68
2023/12/12 07:54:16;;;;;;;16.40;7.30;;;;;;;;;;5039020;28;20235;-67
2023/12/12 07:56:43;;;;;;;25.10;8.33;;;;;;;;;;5037966;28;20204;-67
2023/12/12 07:59:10;;;;;;;19.10;7.00;;;;;;;;;;5034464;28;20201;-68
2023/12/12 08:01:39;;;;;;;24.53;7.27;;;;;;;;;;5036685;28;20200;-68
2023/12/12 08:04:06;;;;;;;19.23;6.90;;;;;;;;;;5035665;28;20200;-67
2023/12/12 08:06:35;;;;;;;20.20;6.83;;;;;;;;;;5042809;28;20215;-68
2023/12/12 08:09:02;;;;;;;19.37;6.23;;;;;;;;;;5039368;28;20211;-67
2023/12/12 08:11:30;;;;;;;15.33;5.77;;;;;;;;;;5041024;28;20203;-67
2023/12/12 08:13:57;;;;;;;17.83;6.07;;;;;;;;;;5044189;28;20288;-67
2023/12/12 08:16:25;;;;;;;22.03;5.97;;;;;;;;;;5039024;28;20204;-68
2023/12/12 08:18:52;;;;;;;14.07;5.70;;;;;;;;;;5036498;28;20203;-67
2023/12/12 08:21:20;;;;;;;14.57;5.13;;;;;;;;;;5038366;28;20522;-67
2023/12/12 08:23:48;;;;;;;16.20;5.50;;;;;;;;;;5038271;28;20208;-68
2023/12/12 08:26:16;;;;;;;14.37;5.67;;;;;;;;;;5037817;28;20208;-68
2023/12/12 08:28:43;;;;;;;16.30;4.90;;;;;;;;;;5036685;28;20212;-68
2023/12/12 08:31:11;;;;;;;12.33;4.67;;;;;;;;;;5042716;28;20234;-68
2023/12/12 08:33:38;;;;;;;12.87;4.83;;;;;;;;;;5045942;28;20297;-67
2023/12/12 08:36:05;;;;;;;14.37;4.70;;;;;;;;;;5033932;28;20215;-68
2023/12/12 08:38:33;;;;;;;11.37;4.47;;;;;;;;;;5044325;28;20207;-67
2023/12/12 08:41:01;;;;;;;15.60;4.73;;;;;;;;;;5042518;28;20211;-68
2023/12/12 08:43:29;;;;;;;14.07;5.37;;;;;;;;;;5042017;28;20208;-68
2023/12/12 08:45:56;;;;;;;16.70;5.50;;;;;;;;;;5039703;28;20257;-68
2023/12/12 08:48:24;;;;;;;12.90;4.73;;;;;;;;;;5039702;28;20208;-67
2023/12/12 08:50:51;;;;;;;14.57;4.73;;;;;;;;;;5041294;28;20203;-62
2023/12/12 08:53:20;;;;;;;13.60;4.93;;;;;;;;;;5038274;28;20326;-62
2023/12/12 08:55:47;;;;;;;11.73;4.93;;;;;;;;;;5037124;28;20208;-62
2023/12/12 08:58:16;;;;;;;12.67;4.53;;;;;;;;;;5039476;28;20302;-64
2023/12/12 09:00:43;;;;;;;12.53;4.77;;;;;;;;;;5037562;28;20196;-63
2023/12/12 09:03:10;;;;;;;13.97;4.70;;;;;;;;;;5037210;28;20208;-62
2023/12/12 09:05:38;;;;;;;9.40;4.20;;;;;;;;;;5043434;28;20199;-63
2023/12/12 09:08:06;;;;;;;13.03;3.70;;;;;;;;;;5045495;28;20223;-63
2023/12/12 09:10:33;;;;;;;7.10;3.13;;;;;;;;;;5041998;28;20214;-63
2023/12/12 09:13:00;;;;;;;11.10;3.80;;;;;;;;;;5038915;28;20199;-63
2023/12/12 09:15:29;;;;;;;13.97;3.80;;;;;;;;;;5037833;28;20236;-63
2023/12/12 09:17:56;;;;;;;9.83;3.27;;;;;;;;;;5036514;28;20211;-64
2023/12/12 09:20:24;;;;;;;14.23;4.40;;;;;;;;;;5042867;28;20253;-63
2023/12/12 09:22:51;;;;;;;12.93;4.17;;;;;;;;;;5042262;28;20200;-64
2023/12/12 09:25:19;;;;;;;19.77;4.93;;;;;;;;;;5045034;28;20254;-63
2023/12/12 09:27:46;;;;;;;12.13;4.40;;;;;;;;;;5049809;28;20243;-64
2023/12/12 09:30:13;;;;;;;11.97;4.87;;;;;;;;;;5041494;28;20269;-63
2023/12/12 09:32:42;;;;;;;11.83;4.20;;;;;;;;;;5040773;28;20272;-62
2023/12/12 09:35:10;;;;;;;11.17;3.87;;;;;;;;;;5038067;28;20228;-62
2023/12/12 09:37:37;;;;;;;11.37;3.90;;;;;;;;;;5040709;28;20271;-63
2023/12/12 09:40:06;;;;;;;8.67;3.80;;;;;;;;;;5044541;28;20242;-62
2023/12/12 09:42:34;;;;;;;8.73;3.67;;;;;;;;;;5036868;28;20290;-62
2023/12/12 09:45:03;;;;;;;8.90;3.93;;;;;;;;;;5038752;28;20203;-62
2023/12/12 09:47:31;;;;;;;11.87;4.03;;;;;;;;;;5047043;28;20204;-63
2023/12/12 09:50:00;;;;;;;8.53;3.73;;;;;;;;;;5041875;28;20204;-63
2023/12/12 09:52:28;;;;;;;11.37;4.30;;;;;;;;;;5042353;28;20267;-62
2023/12/12 09:54:55;;;;;;;13.70;5.90;;;;;;;;;;5038507;28;20212;-63
2023/12/12 09:57:23;;;;;;;10.23;5.17;;;;;;;;;;5039177;28;20398;-63
2023/12/12 09:59:50;;;;;;;14.97;4.97;;;;;;;;;;5040764;28;20258;-63
2023/12/12 10:02:22;;;;;;;10.03;4.37;;;;;;;;;;5040295;28;20219;-67
2023/12/12 10:04:50;;;;;;;9.10;4.53;;;;;;;;;;5043600;28;20240;-67
2023/12/12 10:07:20;;;;;;;10.90;4.30;;;;;;;;;;5045621;28;20211;-67
2023/12/12 10:09:48;;;;;;;14.23;4.57;;;;;;;;;;5041862;28;20277;-68
2023/12/12 10:12:15;;;;;;;15.33;4.40;;;;;;;;;;5040053;28;20253;-68
2023/12/12 10:14:47;;;;;;;14.40;5.60;;;;;;;;;;5043460;28;20235;-67
2023/12/12 10:17:14;;;;;;;11.70;5.40;;;;;;;;;;5040261;28;20199;-68
2023/12/12 10:19:42;;;;;;;15.07;5.37;;;;;;;;;;5037775;28;20258;-68
2023/12/12 10:22:12;;;;;;;15.87;4.93;;;;;;;;;;5048939;28;20226;-68
2023/12/12 10:24:41;;;;;;;12.20;4.77;;;;;;;;;;5042192;28;20215;-67
2023/12/12 10:27:10;;;;;;;13.50;5.20;;;;;;;;;;5042336;28;20210;-68
2023/12/12 10:29:38;;;;;;;13.67;5.37;;;;;;;;;;5041898;28;20291;-68
2023/12/12 10:32:06;;;;;;;19.03;8.30;;;;;;;;;;5042258;28;20212;-67
2023/12/12 10:34:34;;;;;;;15.63;7.37;;;;;;;;;;5041083;28;20227;-68
2023/12/12 10:37:02;;;;;;;18.50;8.83;;;;;;;;;;5043831;28;20204;-68
2023/12/12 10:39:31;;;;;;;19.93;7.83;;;;;;;;;;5038564;28;20212;-68
2023/12/12 10:42:00;;;;;;;19.83;8.57;;;;;;;;;;5038762;28;20228;-68
2023/12/12 10:44:31;;;;;;;18.50;7.33;;;;;;;;;;5041473;28;20283;-68
2023/12/12 10:47:00;;;;;;;13.93;5.83;;;;;;;;;;5037722;28;20277;-67
2023/12/12 10:49:29;;;;;;;13.50;6.30;;;;;;;;;;5039460;28;20207;-68
2023/12/12 10:51:58;;;;;;;19.03;6.33;;;;;;;;;;5044697;28;20214;-67
2023/12/12 10:54:27;;;;;;;15.63;6.40;;;;;;;;;;5036108;28;20227;-67
2023/12/12 10:56:55;;;;;;;10.33;5.97;;;;;;;;;;5038297;28;20257;-67
2023/12/12 10:59:24;;;;;;;12.23;5.80;;;;;;;;;;5041226;28;20229;-68
2023/12/12 11:01:52;;;;;;;10.67;5.50;;;;;;;;;;5039128;28;20271;-67
2023/12/12 11:04:19;;;;;;;11.80;5.13;;;;;;;;;;5043137;28;20249;-67
2023/12/12 11:06:48;;;;;;;10.40;5.60;;;;;;;;;;5045184;28;20236;-68
2023/12/12 11:09:15;;;;;;;14.97;6.20;;;;;;;;;;5038290;28;20263;-67
2023/12/12 11:11:44;;;;;;;15.47;7.20;;;;;;;;;;5040374;28;20215;-67
2023/12/12 11:14:11;;;;;;;25.87;11.63;;;;;;;;;;5042536;28;20258;-67
2023/12/12 11:16:40;;;;;;;30.87;14.07;;;;;;;;;;5040969;28;20206;-67
2023/12/12 11:19:16;;;;;;;26.60;12.67;;;;;;;;;;5041054;28;20210;-67
2023/12/12 11:21:43;;;;;;;18.57;10.00;;;;;;;;;;5036433;28;20199;-67
2023/12/12 11:24:11;;;;;;;18.50;9.43;;;;;;;;;;5042791;28;20257;-67
2023/12/12 11:26:38;;;;;;;17.80;9.20;;;;;;;;;;5038850;28;20200;-67
2023/12/12 11:29:06;;;;;;;14.87;8.53;;;;;;;;;;5039408;28;20200;-68
2023/12/12 11:31:35;;;;;;;10.87;5.90;;;;;;;;;;5039517;28;20196;-68
2023/12/12 11:34:10;;;;;;;9.40;5.13;;;;;;;;;;5041293;28;20303;-67
2023/12/12 11:36:51;;;;;;;8.50;5.40;;;;;;;;;;5038736;28;20253;-67
2023/12/12 11:39:24;;;;;;;9.13;5.43;;;;;;;;;;5039502;28;20214;-68
2023/12/12 11:41:52;;;;;;;8.33;5.70;;;;;;;;;;5038855;28;20200;-68
2023/12/12 11:44:20;;;;;;;5.47;4.60;;;;;;;;;;5035846;28;20326;-68
2023/12/12 11:46:47;;;;;;;7.37;4.87;;;;;;;;;;5036331;28;20245;-67
2023/12/12 11:49:23;;;;;;;6.77;4.90;;;;;;;;;;5039814;28;20256;-67
2023/12/12 11:51:51;;;;;;;7.40;4.70;;;;;;;;;;5041639;28;20265;-68
2023/12/12 11:54:22;;;;;;;20.40;11.53;;;;;;;;;;5040242;28;20255;-67
2023/12/12 11:56:50;;;;;;;19.00;11.03;;;;;;;;;;5038121;28;20204;-67
2023/12/12 11:59:24;;;;;;;14.73;10.73;;;;;;;;;;5039897;28;20211;-67
2023/12/12 12:01:51;;;;;;;9.13;6.53;;;;;;;;;;5036845;28;20204;-67
2023/12/12 12:04:19;;;;;;;7.20;5.30;;;;;;;;;;5039672;28;20202;-67
2023/12/12 12:06:47;;;;;;;6.07;4.50;;;;;;;;;;5041391;28;20200;-67
2023/12/12 12:09:15;;;;;;;5.13;4.33;;;;;;;;;;5043438;28;20204;-67
2023/12/12 12:11:47;;;;;;;6.33;4.40;;;;;;;;;;5039642;28;20211;-67
2023/12/12 12:14:15;;;;;;;6.87;4.70;;;;;;;;;;5037145;28;20243;-67
2023/12/12 12:16:43;;;;;;;5.63;4.40;;;;;;;;;;5040815;28;20200;-67
2023/12/12 12:19:30;;;;;;;4.40;4.00;;;;;;;;;;5037803;28;20268;-67
2023/12/12 12:22:02;;;;;;;4.33;3.77;;;;;;;;;;5041456;28;20214;-62
2023/12/12 12:24:29;;;;;;;3.80;3.50;;;;;;;;;;5041308;28;20214;-64
2023/12/12 12:26:57;;;;;;;3.80;3.50;;;;;;;;;;5042085;28;20207;-62
2023/12/12 12:29:24;;;;;;;3.70;2.97;;;;;;;;;;5042451;28;20222;-62
2023/12/12 12:31:51;;;;;;;3.43;3.10;;;;;;;;;;5040507;28;20266;-63
2023/12/12 12:34:19;;;;;;;3.37;3.07;;;;;;;;;;5045095;28;20218;-62
2023/12/12 12:36:47;;;;;;;4.03;3.17;;;;;;;;;;5043302;28;20195;-62
2023/12/12 12:39:16;;;;;;;3.13;2.50;;;;;;;;;;5040084;28;20290;-62
2023/12/12 12:41:46;;;;;;;2.70;2.50;;;;;;;;;;5041575;28;20204;-62
2023/12/12 12:44:13;;;;;;;3.10;2.80;;;;;;;;;;5040011;28;20211;-62
2023/12/12 12:46:40;;;;;;;2.80;2.60;;;;;;;;;;5043752;28;20203;-63
2023/12/12 12:49:07;;;;;;;3.27;2.97;;;;;;;;;;5041840;28;20208;-62
2023/12/12 12:51:34;;;;;;;3.30;3.00;;;;;;;;;;5040908;28;20207;-62
2023/12/12 12:54:02;;;;;;;3.17;2.97;;;;;;;;;;5043529;28;20215;-63
2023/12/12 12:56:30;;;;;;;3.57;3.27;;;;;;;;;;5045664;28;20277;-62
2023/12/12 12:58:57;;;;;;;3.50;3.20;;;;;;;;;;5047096;28;20208;-62
2023/12/12 13:01:24;;;;;;;3.83;3.50;;;;;;;;;;5043919;28;20199;-62
2023/12/12 13:03:52;;;;;;;3.40;3.10;;;;;;;;;;5041475;28;20216;-62
2023/12/12 13:06:19;;;;;;;3.47;3.17;;;;;;;;;;5051194;28;20205;-62
2023/12/12 13:08:46;;;;;;;3.10;2.90;;;;;;;;;;5041071;28;20207;-63
2023/12/12 13:11:13;;;;;;;3.73;3.43;;;;;;;;;;5042741;28;20218;-63
2023/12/12 13:13:42;;;;;;;4.13;3.73;;;;;;;;;;5044577;28;20207;-62
2023/12/12 13:16:09;;;;;;;3.90;3.60;;;;;;;;;;5044629;28;20269;-62
2023/12/12 13:18:36;;;;;;;3.63;3.33;;;;;;;;;;5043724;28;20219;-62
2023/12/12 13:21:03;;;;;;;4.20;3.80;;;;;;;;;;5042340;28;20200;-62
2023/12/12 13:23:31;;;;;;;5.13;4.00;;;;;;;;;;5044830;28;20199;-62
2023/12/12 13:25:58;;;;;;;5.97;4.40;;;;;;;;;;5045972;28;20294;-62
2023/12/12 13:28:25;;;;;;;5.20;4.33;;;;;;;;;;5044455;28;20219;-62
2023/12/12 13:30:54;;;;;;;3.83;3.53;;;;;;;;;;5044421;28;20211;-62
2023/12/12 13:33:21;;;;;;;6.17;4.50;;;;;;;;;;5042800;28;20254;-62
2023/12/12 13:35:48;;;;;;;4.43;4.00;;;;;;;;;;5050086;28;20233;-63
2023/12/12 13:38:15;;;;;;;5.60;5.10;;;;;;;;;;5045445;28;20196;-63
2023/12/12 13:40:42;;;;;;;6.07;5.20;;;;;;;;;;5042993;28;20222;-64
2023/12/12 13:43:09;;;;;;;5.20;4.70;;;;;;;;;;5047617;28;20226;-62
2023/12/12 13:45:37;;;;;;;4.97;4.33;;;;;;;;;;5040047;28;20200;-62
2023/12/12 13:48:05;;;;;;;6.40;4.77;;;;;;;;;;5049041;28;20195;-62
2023/12/12 13:50:33;;;;;;;7.53;6.83;;;;;;;;;;5041997;28;20211;-62
2023/12/12 13:53:00;;;;;;;5.50;4.93;;;;;;;;;;5048459;28;20286;-62
2023/12/12 13:55:27;;;;;;;5.23;4.57;;;;;;;;;;5040855;28;20226;-62
2023/12/12 13:57:55;;;;;;;5.00;4.60;;;;;;;;;;5045403;28;20214;-62
2023/12/12 14:00:25;;;;;;;5.27;4.77;;;;;;;;;;5046570;28;20207;-62
2023/12/12 14:02:52;;;;;;;5.07;4.57;;;;;;;;;;5047316;28;20245;-62
2023/12/12 14:05:20;;;;;;;5.63;5.03;;;;;;;;;;5049295;28;20298;-62
2023/12/12 14:07:47;;;;;;;5.27;4.33;;;;;;;;;;5047155;28;20207;-62
2023/12/12 14:10:15;;;;;;;4.90;4.40;;;;;;;;;;5048612;28;20310;-62
2023/12/12 14:12:42;;;;;;;5.17;4.67;;;;;;;;;;5045677;28;20208;-62
2023/12/12 14:15:09;;;;;;;5.13;4.63;;;;;;;;;;5046659;28;20250;-62
2023/12/12 14:17:39;;;;;;;5.30;4.47;;;;;;;;;;5036728;28;20215;-62
2023/12/12 14:20:07;;;;;;;7.20;4.97;;;;;;;;;;5047440;28;20196;-61
2023/12/12 14:22:36;;;;;;;6.77;5.40;;;;;;;;;;5042578;28;20208;-62
2023/12/12 14:25:05;;;;;;;6.17;5.57;;;;;;;;;;5035945;28;20342;-62
2023/12/12 14:27:32;;;;;;;7.60;5.60;;;;;;;;;;5042206;28;20203;-62
2023/12/12 14:30:03;;;;;;;6.67;5.93;;;;;;;;;;5045663;28;20208;-62
2023/12/12 14:32:30;;;;;;;7.23;5.57;;;;;;;;;;5042417;28;20206;-62
2023/12/12 14:35:00;;;;;;;8.00;6.23;;;;;;;;;;5045025;28;20207;-62
2023/12/12 14:37:29;;;;;;;8.73;5.67;;;;;;;;;;5045572;28;20211;-62